createdAt,value
2023-11-12T00:01:45.286Z,2.70
2023-11-12T00:04:17.286Z,2.30
2023-11-12T00:06:48.966Z,2.60
2023-11-12T00:09:20.336Z,2.40
2023-11-12T00:11:51.768Z,2.90
2023-11-12T00:14:22.927Z,2.20
2023-11-12T00:16:54.217Z,2.70
2023-11-12T00:19:25.501Z,2.30
2023-11-12T00:21:58.461Z,2.60
2023-11-12T00:24:30.080Z,2.90
2023-11-12T00:27:01.192Z,2.70
2023-11-12T00:29:32.978Z,2.40
2023-11-12T00:32:05.056Z,2.00
2023-11-12T00:34:37.486Z,2.30
2023-11-12T00:37:08.959Z,2.20
2023-11-12T00:39:44.991Z,2.40
2023-11-12T00:42:16.456Z,2.10
2023-11-12T00:44:48.118Z,2.10
2023-11-12T00:47:19.145Z,2.00
2023-11-12T00:49:50.184Z,2.30
2023-11-12T00:52:21.190Z,2.50
2023-11-12T00:54:52.324Z,2.70
2023-11-12T00:57:23.888Z,2.60
2023-11-12T00:59:55.371Z,2.60
2023-11-12T01:02:28.976Z,2.90
2023-11-12T01:05:00.699Z,2.40
2023-11-12T01:07:31.930Z,2.40
2023-11-12T01:10:03.412Z,2.30
2023-11-12T01:12:34.914Z,2.50
2023-11-12T01:15:07.493Z,1.90
2023-11-12T01:17:39.883Z,2.10
2023-11-12T01:20:14.119Z,2.40
2023-11-12T01:22:45.997Z,2.80
2023-11-12T01:25:17.673Z,2.20
2023-11-12T01:27:49.240Z,1.90
2023-11-12T01:30:21.149Z,2.20
2023-11-12T01:32:53.513Z,2.00
2023-11-12T01:35:24.720Z,2.10
2023-11-12T01:37:56.123Z,2.40
2023-11-12T01:40:27.347Z,2.50
2023-11-12T01:42:58.482Z,2.20
2023-11-12T01:45:29.788Z,2.10
2023-11-12T01:48:01.844Z,2.10
2023-11-12T01:50:33.619Z,2.00
2023-11-12T01:53:05.837Z,2.10
2023-11-12T01:55:38.045Z,1.90
2023-11-12T01:58:11.175Z,2.10
2023-11-12T02:00:42.546Z,2.20
2023-11-12T02:03:18.455Z,2.00
2023-11-12T02:05:49.638Z,2.10
2023-11-12T02:08:23.236Z,2.40
2023-11-12T02:10:54.968Z,2.00
2023-11-12T02:13:26.543Z,2.80
2023-11-12T02:15:58.446Z,2.10
2023-11-12T02:18:29.876Z,2.10
2023-11-12T02:21:02.266Z,1.90
2023-11-12T02:23:34.384Z,1.80
2023-11-12T02:26:05.645Z,2.00
2023-11-12T02:28:37.041Z,2.00
2023-11-12T02:31:08.472Z,2.30
2023-11-12T02:33:40.503Z,1.90
2023-11-12T02:36:12.574Z,2.20
2023-11-12T02:38:43.879Z,2.20
2023-11-12T02:41:14.925Z,2.20
2023-11-12T02:43:47.269Z,2.10
2023-11-12T02:46:18.759Z,2.00
2023-11-12T02:49:13.612Z,2.10
2023-11-12T02:51:46.459Z,2.10
2023-11-12T02:54:18.546Z,2.00
2023-11-12T02:56:49.869Z,1.90
2023-11-12T02:59:21.464Z,2.00
2023-11-12T03:01:52.820Z,2.10
2023-11-12T03:04:23.962Z,2.00
2023-11-12T03:06:55.231Z,1.90
2023-11-12T03:09:26.920Z,2.00
2023-11-12T03:11:58.747Z,2.00
2023-11-12T03:14:29.986Z,2.00
2023-11-12T03:17:00.996Z,1.70
2023-11-12T03:19:32.458Z,1.70
2023-11-12T03:22:03.693Z,2.00
2023-11-12T03:24:36.878Z,1.80
2023-11-12T03:27:09.686Z,1.90
2023-11-12T03:29:40.702Z,2.00
2023-11-12T03:32:12.021Z,1.90
2023-11-12T03:34:43.395Z,1.80
2023-11-12T03:37:14.908Z,1.90
2023-11-12T03:39:46.995Z,2.00
2023-11-12T03:42:18.708Z,1.90
2023-11-12T03:44:50.730Z,1.70
2023-11-12T03:47:22.190Z,1.90
2023-11-12T03:49:53.730Z,1.90
2023-11-12T03:52:25.134Z,2.00
2023-11-12T03:54:56.705Z,2.00
2023-11-12T03:57:28.484Z,2.00
2023-11-12T03:59:59.690Z,2.10
2023-11-12T04:02:30.685Z,2.00
2023-11-12T04:05:02.760Z,1.60
2023-11-12T04:07:33.992Z,1.90
2023-11-12T04:10:06.737Z,1.60
2023-11-12T04:12:38.070Z,1.70
2023-11-12T04:15:10.837Z,2.00
2023-11-12T04:17:42.021Z,1.70
2023-11-12T04:20:16.198Z,1.70
2023-11-12T04:22:47.940Z,2.20
2023-11-12T04:25:19.744Z,1.80
2023-11-12T04:27:51.066Z,1.70
2023-11-12T04:30:22.636Z,1.80
2023-11-12T04:32:53.964Z,1.60
2023-11-12T04:35:24.950Z,1.50
2023-11-12T04:37:56.207Z,1.70
2023-11-12T04:40:27.451Z,1.60
2023-11-12T04:42:59.016Z,1.60
2023-11-12T04:45:30.335Z,1.60
2023-11-12T04:48:01.783Z,1.70
2023-11-12T04:50:33.032Z,1.90
2023-11-12T04:53:04.116Z,1.90
2023-11-12T04:55:35.418Z,1.80
2023-11-12T04:58:08.373Z,1.60
2023-11-12T05:00:42.226Z,1.70
2023-11-12T05:03:13.448Z,1.60
2023-11-12T05:05:44.884Z,1.50
2023-11-12T05:08:16.081Z,1.50
2023-11-12T05:10:47.300Z,1.40
2023-11-12T05:13:18.451Z,1.40
2023-11-12T05:15:49.444Z,1.60
2023-11-12T05:18:20.982Z,1.50
2023-11-12T05:20:52.386Z,1.30
2023-11-12T05:23:23.878Z,1.40
2023-11-12T05:25:56.250Z,1.50
2023-11-12T05:28:28.739Z,1.60
2023-11-12T05:31:00.251Z,1.50
2023-11-12T05:33:32.255Z,1.50
2023-11-12T05:36:04.198Z,1.50
2023-11-12T05:38:35.728Z,1.50
2023-11-12T05:41:07.629Z,1.70
2023-11-12T05:43:38.923Z,1.50
2023-11-12T05:46:10.292Z,1.50
2023-11-12T05:48:41.517Z,1.70
2023-11-12T05:51:12.676Z,1.40
2023-11-12T05:53:44.227Z,1.40
2023-11-12T05:56:15.777Z,1.40
2023-11-12T05:58:47.222Z,1.60
2023-11-12T06:01:20.395Z,1.60
2023-11-12T06:03:51.785Z,1.30
2023-11-12T06:06:23.394Z,1.20
2023-11-12T06:08:54.764Z,1.30
2023-11-12T06:11:26.589Z,1.20
2023-11-12T06:13:57.999Z,1.10
2023-11-12T06:16:29.851Z,1.20
2023-11-12T06:19:01.219Z,1.10
2023-11-12T06:21:32.232Z,1.40
2023-11-12T06:24:05.834Z,1.50
2023-11-12T06:26:37.784Z,1.30
2023-11-12T06:29:10.190Z,1.50
2023-11-12T06:31:41.911Z,1.40
2023-11-12T06:34:13.061Z,1.30
2023-11-12T06:36:44.328Z,1.30
2023-11-12T06:39:15.825Z,1.30
2023-11-12T06:41:47.239Z,1.30
2023-11-12T06:44:18.250Z,1.40
2023-11-12T06:46:50.051Z,1.60
2023-11-12T06:49:21.392Z,1.80
2023-11-12T06:51:52.649Z,1.70
2023-11-12T06:54:23.971Z,1.70
2023-11-12T06:56:56.462Z,1.50
2023-11-12T06:59:29.161Z,1.90
2023-11-12T07:02:00.547Z,1.60
2023-11-12T07:04:32.012Z,1.40
2023-11-12T07:07:13.871Z,1.30
2023-11-12T07:09:48.493Z,1.40
2023-11-12T07:12:19.744Z,1.30
2023-11-12T07:14:51.117Z,1.40
2023-11-12T07:17:22.558Z,1.30
2023-11-12T07:19:54.352Z,1.50
2023-11-12T07:22:26.376Z,1.50
2023-11-12T07:24:58.956Z,1.50
2023-11-12T07:27:33.347Z,1.50
2023-11-12T07:30:04.982Z,1.50
2023-11-12T07:32:35.930Z,1.40
2023-11-12T07:35:09.577Z,1.60
2023-11-12T07:37:42.282Z,2.10
2023-11-12T07:40:16.989Z,1.70
2023-11-12T07:42:48.482Z,1.60
2023-11-12T07:45:25.395Z,1.90
2023-11-12T07:47:59.961Z,1.60
2023-11-12T07:50:31.394Z,1.70
2023-11-12T07:53:04.585Z,1.90
2023-11-12T07:55:35.700Z,2.00
2023-11-12T07:58:07.252Z,1.70
2023-11-12T08:00:38.441Z,2.30
2023-11-12T08:03:09.770Z,2.20
2023-11-12T08:05:42.082Z,2.00
2023-11-12T08:08:13.195Z,1.90
2023-11-12T08:10:44.384Z,2.00
2023-11-12T08:13:17.912Z,2.00
2023-11-12T08:15:49.644Z,2.20
2023-11-12T08:18:21.190Z,2.00
2023-11-12T08:20:52.683Z,1.90
2023-11-12T08:23:23.852Z,2.00
2023-11-12T08:25:56.367Z,1.90
2023-11-12T08:28:28.499Z,2.00
2023-11-12T08:30:59.588Z,2.10
2023-11-12T08:33:30.797Z,2.90
2023-11-12T08:36:02.144Z,7.60
2023-11-12T08:38:32.985Z,5.60
2023-11-12T08:41:05.823Z,7.30
2023-11-12T08:43:37.068Z,9.30
2023-11-12T08:46:08.635Z,7.90
2023-11-12T08:48:44.132Z,8.30
2023-11-12T08:51:16.238Z,9.60
2023-11-12T08:53:47.624Z,13.50
2023-11-12T08:56:18.815Z,10.80
2023-11-12T08:58:50.060Z,5.80
2023-11-12T09:01:21.243Z,5.60
2023-11-12T09:03:53.587Z,17.20
2023-11-12T09:06:25.137Z,3.60
2023-11-12T09:08:56.666Z,2.50
2023-11-12T09:11:28.049Z,2.80
2023-11-12T09:14:02.016Z,2.30
2023-11-12T09:16:33.405Z,2.20
2023-11-12T09:19:07.121Z,1.90
2023-11-12T09:21:38.285Z,2.20
2023-11-12T09:24:11.513Z,1.90
2023-11-12T09:26:43.511Z,1.90
2023-11-12T09:29:14.574Z,2.20
2023-11-12T09:31:45.699Z,2.20
2023-11-12T09:34:17.319Z,2.40
2023-11-12T09:36:48.485Z,2.20
2023-11-12T09:39:20.998Z,2.30
2023-11-12T09:41:57.066Z,2.20
2023-11-12T09:44:32.434Z,2.20
2023-11-12T09:47:30.885Z,2.50
2023-11-12T09:50:07.518Z,2.20
2023-11-12T09:52:39.261Z,2.10
2023-11-12T09:55:12.261Z,2.10
2023-11-12T09:57:43.408Z,2.30
2023-11-12T10:00:17.895Z,2.20
2023-11-12T10:02:49.396Z,5.50
2023-11-12T10:05:20.630Z,2.90
2023-11-12T10:07:51.840Z,3.50
2023-11-12T10:10:28.276Z,2.50
2023-11-12T10:13:00.168Z,2.50
2023-11-12T10:15:35.071Z,3.20
2023-11-12T10:18:07.586Z,2.80
2023-11-12T10:20:42.070Z,2.90
2023-11-12T10:23:32.617Z,3.00
2023-11-12T10:26:14.456Z,3.00
2023-11-12T10:28:45.696Z,2.80
2023-11-12T10:31:16.869Z,2.90
2023-11-12T10:34:02.570Z,2.30
2023-11-12T10:36:33.974Z,2.60
2023-11-12T10:39:12.547Z,2.40
2023-11-12T10:41:43.876Z,2.40
2023-11-12T10:44:16.045Z,2.30
2023-11-12T10:46:54.182Z,2.30
2023-11-12T10:49:27.462Z,2.10
2023-11-12T10:51:59.283Z,2.20
2023-11-12T10:54:34.002Z,2.30
2023-11-12T10:57:07.915Z,2.30
2023-11-12T10:59:42.273Z,2.40
2023-11-12T11:02:19.975Z,2.20
2023-11-12T11:04:51.605Z,2.40
2023-11-12T11:07:24.694Z,2.30
2023-11-12T11:09:56.169Z,2.60
2023-11-12T11:12:27.372Z,2.00
2023-11-12T11:15:19.198Z,2.20
2023-11-12T11:17:50.440Z,2.20
2023-11-12T11:20:22.033Z,2.10
2023-11-12T11:22:52.961Z,2.20
2023-11-12T11:25:27.868Z,2.20
2023-11-12T11:28:22.474Z,2.30
2023-11-12T11:31:14.958Z,2.20
2023-11-12T11:33:52.656Z,2.30
2023-11-12T11:36:25.545Z,2.60
2023-11-12T11:39:30.213Z,2.30
2023-11-12T11:42:16.694Z,2.20
2023-11-12T11:44:56.437Z,2.20
2023-11-12T11:47:29.406Z,2.10
2023-11-12T11:50:27.222Z,2.20
2023-11-12T11:53:18.525Z,2.30
2023-11-12T11:55:56.060Z,2.10
2023-11-12T11:58:31.515Z,2.30
2023-11-12T12:01:03.240Z,2.30
2023-11-12T12:03:34.328Z,2.50
2023-11-12T12:06:18.111Z,2.40
2023-11-12T12:08:58.912Z,2.40
2023-11-12T12:11:29.860Z,2.80
2023-11-12T12:14:01.779Z,2.30
2023-11-12T12:16:33.982Z,2.60
2023-11-12T12:19:05.450Z,2.80
2023-11-12T12:21:37.676Z,2.60
2023-11-12T12:24:10.562Z,2.80
2023-11-12T12:26:42.392Z,2.90
2023-11-12T12:29:18.000Z,2.80
2023-11-12T12:31:50.651Z,2.90
2023-11-12T12:34:25.657Z,2.60
2023-11-12T12:37:06.680Z,2.80
2023-11-12T12:39:55.839Z,2.70
2023-11-12T12:42:29.549Z,3.40
2023-11-12T12:45:00.972Z,3.80
2023-11-12T12:47:37.894Z,4.10
2023-11-12T12:50:26.833Z,4.30
2023-11-12T12:53:15.136Z,4.10
2023-11-12T12:55:47.656Z,3.60
2023-11-12T12:58:20.771Z,4.40
2023-11-12T13:00:54.771Z,5.30
2023-11-12T13:03:31.539Z,5.70
2023-11-12T13:06:02.890Z,5.20
2023-11-12T13:08:34.883Z,5.10
2023-11-12T13:11:06.780Z,5.60
2023-11-12T13:13:38.329Z,4.80
2023-11-12T13:16:12.413Z,5.90
2023-11-12T13:18:43.664Z,5.90
2023-11-12T13:21:15.474Z,5.60
2023-11-12T13:23:50.479Z,5.30
2023-11-12T13:26:23.422Z,4.70
2023-11-12T13:28:58.024Z,5.40
2023-11-12T13:34:01.943Z,4.80
2023-11-12T13:36:33.777Z,4.60
2023-11-12T13:39:05.995Z,4.00
2023-11-12T13:41:38.795Z,5.30
2023-11-12T13:44:10.562Z,4.90
2023-11-12T13:46:42.620Z,4.30
2023-11-12T13:49:14.046Z,4.40
2023-11-12T13:51:46.475Z,4.00
2023-11-12T13:54:17.917Z,3.90
2023-11-12T13:56:50.504Z,4.90
2023-11-12T13:59:22.345Z,4.40
2023-11-12T14:01:53.720Z,5.00
2023-11-12T14:04:27.982Z,3.80
2023-11-12T14:06:59.450Z,5.30
2023-11-12T14:09:34.399Z,5.00
2023-11-12T14:12:08.258Z,4.90
2023-11-12T14:14:39.682Z,4.40
2023-11-12T14:17:11.038Z,5.50
2023-11-12T14:19:44.244Z,5.20
2023-11-12T14:22:15.879Z,4.60
2023-11-12T14:24:47.080Z,5.30
2023-11-12T14:27:18.537Z,5.70
2023-11-12T14:29:51.183Z,5.50
2023-11-12T14:32:22.280Z,5.30
2023-11-12T14:34:53.138Z,4.70
2023-11-12T14:37:26.092Z,6.00
2023-11-12T14:39:59.100Z,6.10
2023-11-12T14:42:31.385Z,5.40
2023-11-12T14:45:02.693Z,6.40
2023-11-12T14:47:36.684Z,5.60
2023-11-12T14:50:09.620Z,5.20
2023-11-12T14:52:42.904Z,5.30
2023-11-12T14:55:24.436Z,4.80
2023-11-12T14:57:58.395Z,5.10
2023-11-12T15:00:30.823Z,4.90
2023-11-12T15:03:06.257Z,5.50
2023-11-12T15:05:38.584Z,5.80
2023-11-12T15:08:10.565Z,5.70
2023-11-12T15:10:43.317Z,4.80
2023-11-12T15:13:14.246Z,5.30
2023-11-12T15:15:45.861Z,4.80
2023-11-12T15:18:17.414Z,5.80
2023-11-12T15:20:48.406Z,5.40
2023-11-12T15:23:19.662Z,5.10
2023-11-12T15:25:51.722Z,4.90
2023-11-12T15:28:24.254Z,5.40
2023-11-12T15:30:55.678Z,4.10
2023-11-12T15:33:27.035Z,4.20
2023-11-12T15:35:58.007Z,3.90
2023-11-12T15:38:29.302Z,4.00
2023-11-12T15:41:00.461Z,3.80
2023-11-12T15:43:32.068Z,4.00
2023-11-12T15:46:04.733Z,4.20
2023-11-12T15:48:36.263Z,3.80
2023-11-12T15:51:11.205Z,4.00
2023-11-12T15:53:42.900Z,4.00
2023-11-12T15:56:16.384Z,4.10
2023-11-12T15:58:47.428Z,4.00
2023-11-12T16:01:18.880Z,4.50
2023-11-12T16:03:50.659Z,4.70
2023-11-12T16:06:22.081Z,4.30
2023-11-12T16:08:56.507Z,4.40
2023-11-12T16:11:30.336Z,5.00
2023-11-12T16:14:02.209Z,5.30
2023-11-12T16:16:33.442Z,5.40
2023-11-12T16:19:05.900Z,5.30
2023-11-12T16:21:37.338Z,5.10
2023-11-12T16:24:11.459Z,5.20
2023-11-12T16:26:43.281Z,5.10
2023-11-12T16:29:14.479Z,4.80
2023-11-12T16:31:46.029Z,4.60
2023-11-12T16:34:17.057Z,4.40
2023-11-12T16:36:49.343Z,4.70
2023-11-12T16:39:21.143Z,4.70
2023-11-12T16:41:52.033Z,4.90
2023-11-12T16:44:24.565Z,4.70
2023-11-12T16:46:55.799Z,5.30
2023-11-12T16:49:27.646Z,5.30
2023-11-12T16:51:59.329Z,5.80
2023-11-12T16:54:30.273Z,6.10
2023-11-12T16:57:02.117Z,5.70
2023-11-12T16:59:33.514Z,5.70
2023-11-12T17:02:04.923Z,5.20
2023-11-12T17:04:36.285Z,5.20
2023-11-12T17:07:09.872Z,5.50
2023-11-12T17:09:41.941Z,4.70
2023-11-12T17:12:14.062Z,4.80
2023-11-12T17:14:45.623Z,4.60
2023-11-12T17:17:17.090Z,4.10
2023-11-12T17:19:49.440Z,4.50
2023-11-12T17:22:22.304Z,4.30
2023-11-12T17:24:54.666Z,4.20
2023-11-12T17:27:26.565Z,4.00
2023-11-12T17:29:58.055Z,4.40
2023-11-12T17:32:29.066Z,4.00
2023-11-12T17:35:00.669Z,4.20
2023-11-12T17:37:31.749Z,4.20
2023-11-12T17:40:06.452Z,3.90
2023-11-12T17:42:38.585Z,5.80
2023-11-12T17:45:12.460Z,4.40
2023-11-12T17:47:43.658Z,4.00
2023-11-12T17:50:15.240Z,4.50
2023-11-12T17:52:46.865Z,4.50
2023-11-12T17:55:18.731Z,4.60
2023-11-12T17:57:50.616Z,4.30
2023-11-12T18:00:23.190Z,4.30
2023-11-12T18:02:56.604Z,4.60
2023-11-12T18:05:28.223Z,4.20
2023-11-12T18:07:59.641Z,4.60
2023-11-12T18:10:32.434Z,4.50
2023-11-12T18:13:04.039Z,4.30
2023-11-12T18:15:35.401Z,4.20
2023-11-12T18:18:07.223Z,4.20
2023-11-12T18:20:38.283Z,4.20
2023-11-12T18:23:09.566Z,4.50
2023-11-12T18:25:40.621Z,4.00
2023-11-12T18:28:12.103Z,4.50
2023-11-12T18:30:48.827Z,4.10
2023-11-12T18:33:21.255Z,4.60
2023-11-12T18:35:52.482Z,4.60
2023-11-12T18:38:23.372Z,5.20
2023-11-12T18:40:54.894Z,5.10
2023-11-12T18:43:26.323Z,5.10
2023-11-12T18:46:02.063Z,4.70
2023-11-12T18:48:33.570Z,5.10
2023-11-12T18:51:05.326Z,4.70
2023-11-12T18:53:36.723Z,4.90
2023-11-12T18:56:11.521Z,4.50
2023-11-12T18:58:43.568Z,4.50
2023-11-12T19:01:14.698Z,4.40
2023-11-12T19:03:47.334Z,5.00
2023-11-12T19:06:18.910Z,5.10
2023-11-12T19:08:50.150Z,5.20
2023-11-12T19:11:21.261Z,4.70
2023-11-12T19:13:52.486Z,4.80
2023-11-12T19:16:23.936Z,5.70
2023-11-12T19:18:59.980Z,5.90
2023-11-12T19:21:31.578Z,5.70
2023-11-12T19:24:04.165Z,5.60
2023-11-12T19:26:36.193Z,5.30
2023-11-12T19:29:07.665Z,5.30
2023-11-12T19:31:39.246Z,4.90
2023-11-12T19:34:11.832Z,4.50
2023-11-12T19:36:44.218Z,4.60
2023-11-12T19:39:15.487Z,4.40
2023-11-12T19:41:46.943Z,4.60
2023-11-12T19:44:20.925Z,4.80
2023-11-12T19:46:52.151Z,5.10
2023-11-12T19:49:23.871Z,5.00
2023-11-12T19:51:55.047Z,4.70
2023-11-12T19:54:26.183Z,4.60
2023-11-12T19:56:57.312Z,4.30
2023-11-12T19:59:29.861Z,5.00
2023-11-12T20:02:01.254Z,5.00
2023-11-12T20:04:32.624Z,4.80
2023-11-12T20:07:04.992Z,4.40
2023-11-12T20:09:38.243Z,4.60
2023-11-12T20:12:13.671Z,4.70
2023-11-12T20:14:45.605Z,4.70
2023-11-12T20:17:16.901Z,4.50
2023-11-12T20:19:47.900Z,5.10
2023-11-12T20:22:19.352Z,5.00
2023-11-12T20:24:51.378Z,5.10
2023-11-12T20:27:22.564Z,5.10
2023-11-12T20:29:58.042Z,5.10
2023-11-12T20:32:30.283Z,5.70
2023-11-12T20:35:01.445Z,5.80
2023-11-12T20:37:32.396Z,6.30
2023-11-12T20:40:08.862Z,6.00
2023-11-12T20:42:42.966Z,6.60
2023-11-12T20:45:18.329Z,7.10
2023-11-12T20:47:53.549Z,6.00
2023-11-12T20:50:25.014Z,5.80
2023-11-12T20:52:57.699Z,5.10
2023-11-12T20:55:28.999Z,4.80
2023-11-12T20:58:00.151Z,5.10
2023-11-12T21:00:32.344Z,5.00
2023-11-12T21:03:03.547Z,4.90
2023-11-12T21:05:36.528Z,5.00
2023-11-12T21:08:08.286Z,5.00
2023-11-12T21:10:39.706Z,4.90
2023-11-12T21:13:11.246Z,5.10
2023-11-12T21:15:44.106Z,5.00
2023-11-12T21:18:15.562Z,5.40
2023-11-12T21:20:47.052Z,4.90
2023-11-12T21:23:18.151Z,5.00
2023-11-12T21:25:53.371Z,5.30
2023-11-12T21:28:24.735Z,4.80
2023-11-12T21:30:56.705Z,5.00
2023-11-12T21:33:27.885Z,5.10
2023-11-12T21:36:00.587Z,5.00
2023-11-12T21:38:32.010Z,4.70
2023-11-12T21:41:03.037Z,4.60
2023-11-12T21:43:35.890Z,4.80
2023-11-12T21:46:08.761Z,5.00
2023-11-12T21:48:40.347Z,4.70
2023-11-12T21:51:11.881Z,4.80
2023-11-12T21:53:43.138Z,4.40
2023-11-12T21:56:16.564Z,4.70
2023-11-12T21:58:47.477Z,4.30
2023-11-12T22:01:20.092Z,4.10
2023-11-12T22:03:51.806Z,4.40
2023-11-12T22:06:23.534Z,4.10
2023-11-12T22:08:56.316Z,4.30
2023-11-12T22:11:27.367Z,4.00
2023-11-12T22:13:58.458Z,4.50
2023-11-12T22:16:29.422Z,5.00
2023-11-12T22:19:01.067Z,4.70
2023-11-12T22:21:32.428Z,4.40
2023-11-12T22:24:03.589Z,4.40
2023-11-12T22:26:35.257Z,4.60
2023-11-12T22:29:07.516Z,4.40
2023-11-12T22:31:38.662Z,4.20
2023-11-12T22:34:09.878Z,4.50
2023-11-12T22:36:42.035Z,3.90
2023-11-12T22:39:13.627Z,4.10
2023-11-12T22:41:44.646Z,4.20
2023-11-12T22:44:16.200Z,4.20
2023-11-12T22:46:51.585Z,4.20
2023-11-12T22:49:22.933Z,4.60
2023-11-12T22:51:54.089Z,4.60
2023-11-12T22:54:25.529Z,5.00
2023-11-12T22:56:56.563Z,4.90
2023-11-12T22:59:27.632Z,4.40
2023-11-12T23:01:59.127Z,4.90
2023-11-12T23:04:30.660Z,4.40
2023-11-12T23:07:02.493Z,4.90
2023-11-12T23:09:35.599Z,4.90
2023-11-12T23:12:09.929Z,4.90
2023-11-12T23:14:41.227Z,5.00
2023-11-12T23:17:14.211Z,4.70
2023-11-12T23:19:45.553Z,4.90
2023-11-12T23:22:16.992Z,4.80
2023-11-12T23:24:48.438Z,4.70
2023-11-12T23:27:19.919Z,4.70
2023-11-12T23:29:51.155Z,5.00
2023-11-12T23:32:22.737Z,4.80
2023-11-12T23:34:54.133Z,4.60
2023-11-12T23:37:25.346Z,4.60
2023-11-12T23:39:57.010Z,4.60
2023-11-12T23:42:28.628Z,4.80
2023-11-12T23:44:59.605Z,4.70
2023-11-12T23:47:30.756Z,4.70
2023-11-12T23:50:02.041Z,4.50
2023-11-12T23:52:33.183Z,5.10
2023-11-12T23:55:06.914Z,4.90
2023-11-12T23:57:39.677Z,5.10
